createdAt,value
2023-02-15T00:02:07.210Z,36.60
2023-02-15T00:04:47.544Z,37.60
2023-02-15T00:07:15.621Z,35.77
2023-02-15T00:09:43.155Z,42.00
2023-02-15T00:12:10.743Z,35.87
2023-02-15T00:14:38.324Z,32.70
2023-02-15T00:17:05.871Z,42.75
2023-02-15T00:19:33.427Z,40.13
2023-02-15T00:22:00.969Z,42.53
2023-02-15T00:24:28.502Z,49.40
2023-02-15T00:26:56.074Z,41.43
2023-02-15T00:29:23.611Z,43.23
2023-02-15T00:31:51.178Z,38.23
2023-02-15T00:34:25.297Z,36.80
2023-02-15T00:36:52.832Z,36.47
2023-02-15T00:39:21.149Z,39.73
2023-02-15T00:41:48.707Z,37.10
2023-02-15T00:44:16.233Z,39.27
2023-02-15T00:46:43.790Z,36.13
2023-02-15T00:49:12.120Z,37.33
2023-02-15T00:51:39.654Z,36.57
2023-02-15T00:54:07.189Z,41.00
2023-02-15T00:56:34.785Z,33.30
2023-02-15T00:59:02.316Z,41.43
2023-02-15T01:01:29.898Z,41.07
2023-02-15T01:03:58.239Z,41.37
2023-02-15T01:06:25.724Z,36.80
2023-02-15T01:08:53.247Z,41.90
2023-02-15T01:11:21.582Z,40.50
2023-02-15T01:13:49.105Z,35.43
2023-02-15T01:16:16.651Z,40.87
2023-02-15T01:18:44.964Z,40.17
2023-02-15T01:21:12.487Z,42.73
2023-02-15T01:23:40.025Z,42.33
2023-02-15T01:26:07.941Z,40.77
2023-02-15T01:28:35.489Z,39.13
2023-02-15T01:31:05.778Z,35.67
2023-02-15T01:33:33.275Z,36.90
2023-02-15T01:36:01.066Z,37.20
2023-02-15T01:38:29.125Z,36.10
2023-02-15T01:40:59.597Z,37.63
2023-02-15T01:43:27.124Z,37.20
2023-02-15T01:45:54.699Z,36.92
2023-02-15T01:48:22.229Z,35.53
2023-02-15T01:50:58.120Z,33.33
2023-02-15T01:53:37.979Z,37.53
2023-02-15T01:56:08.222Z,33.73
2023-02-15T01:58:35.753Z,36.23
2023-02-15T02:01:04.114Z,36.37
2023-02-15T02:03:49.758Z,34.83
2023-02-15T02:06:17.345Z,34.47
2023-02-15T02:08:44.875Z,36.27
2023-02-15T02:11:12.419Z,42.05
2023-02-15T02:13:39.992Z,40.20
2023-02-15T02:16:19.399Z,35.37
2023-02-15T02:19:11.782Z,36.97
2023-02-15T02:22:03.969Z,33.00
2023-02-15T02:24:46.173Z,32.90
2023-02-15T02:27:35.734Z,43.40
2023-02-15T02:30:12.402Z,32.30
2023-02-15T02:32:48.380Z,36.93
2023-02-15T02:35:28.644Z,34.80
2023-02-15T02:37:56.967Z,34.67
2023-02-15T02:40:27.417Z,33.13
2023-02-15T02:42:57.905Z,36.50
2023-02-15T02:45:28.128Z,43.22
2023-02-15T02:48:01.806Z,43.83
2023-02-15T02:50:29.364Z,48.57
2023-02-15T02:52:57.680Z,80.13
2023-02-15T02:55:55.515Z,61.73
2023-02-15T02:58:38.204Z,49.33
2023-02-15T03:01:18.388Z,88.47
2023-02-15T03:03:45.865Z,117.03
2023-02-15T03:08:39.676Z,112.83
2023-02-15T03:11:07.211Z,133.77
2023-02-15T03:13:34.737Z,104.35
2023-02-15T03:16:21.399Z,93.03
2023-02-15T03:18:55.438Z,107.87
2023-02-15T03:21:23.035Z,166.93
2023-02-15T03:23:56.395Z,93.67
2023-02-15T03:26:23.931Z,114.10
2023-02-15T03:28:51.486Z,101.05
2023-02-15T03:31:19.229Z,80.93
2023-02-15T03:33:46.595Z,74.47
2023-02-15T03:36:14.129Z,87.10
2023-02-15T03:38:53.489Z,67.80
2023-02-15T03:41:21.037Z,103.47
2023-02-15T03:43:51.089Z,109.53
2023-02-15T03:46:37.894Z,128.10
2023-02-15T03:49:11.245Z,138.60
2023-02-15T03:51:38.785Z,151.00
2023-02-15T03:54:10.177Z,143.73
2023-02-15T03:56:37.698Z,142.97
2023-02-15T03:59:23.931Z,146.60
2023-02-15T04:02:00.161Z,145.67
2023-02-15T04:04:40.053Z,118.80
2023-02-15T04:07:08.317Z,116.63
2023-02-15T04:09:53.967Z,110.43
2023-02-15T04:12:21.522Z,122.87
2023-02-15T04:15:07.700Z,138.80
2023-02-15T04:17:35.229Z,145.70
2023-02-15T04:20:20.769Z,184.37
2023-02-15T04:23:06.499Z,137.93
2023-02-15T04:25:34.063Z,127.00
2023-02-15T04:28:01.609Z,112.37
2023-02-15T04:30:29.247Z,116.80
2023-02-15T04:32:56.735Z,86.90
2023-02-15T04:35:24.300Z,107.27
2023-02-15T04:37:51.837Z,137.13
2023-02-15T04:40:19.887Z,98.60
2023-02-15T04:42:46.942Z,85.93
2023-02-15T04:45:14.478Z,80.15
2023-02-15T04:47:42.046Z,84.33
2023-02-15T04:50:09.713Z,98.93
2023-02-15T04:52:37.261Z,100.97
2023-02-15T04:55:05.915Z,68.13
2023-02-15T04:57:34.208Z,94.73
2023-02-15T05:00:02.531Z,142.63
2023-02-15T05:02:30.119Z,132.83
2023-02-15T05:04:57.665Z,83.00
2023-02-15T05:07:25.215Z,96.33
2023-02-15T05:09:53.163Z,113.28
2023-02-15T05:12:20.699Z,110.82
2023-02-15T05:14:48.224Z,120.50
2023-02-15T05:17:15.785Z,94.03
2023-02-15T05:19:44.081Z,80.70
2023-02-15T05:22:12.383Z,94.33
2023-02-15T05:24:57.813Z,89.10
2023-02-15T05:27:43.397Z,106.83
2023-02-15T05:30:11.253Z,86.83
2023-02-15T05:32:38.835Z,131.57
2023-02-15T05:35:06.234Z,90.53
2023-02-15T05:37:33.822Z,99.90
2023-02-15T05:40:01.389Z,114.53
2023-02-15T05:42:28.910Z,86.82
2023-02-15T05:44:56.493Z,178.73
2023-02-15T05:47:24.050Z,174.83
2023-02-15T05:49:51.572Z,195.63
2023-02-15T05:52:19.164Z,134.23
2023-02-15T05:54:46.711Z,101.33
2023-02-15T05:57:14.246Z,98.80
2023-02-15T05:59:41.853Z,168.57
2023-02-15T06:02:09.484Z,145.43
2023-02-15T06:04:36.940Z,156.57
2023-02-15T06:07:04.533Z,127.57
2023-02-15T06:09:32.079Z,115.83
2023-02-15T06:11:59.613Z,101.40
2023-02-15T06:14:27.503Z,201.33
2023-02-15T06:16:55.039Z,192.13
2023-02-15T06:19:22.573Z,154.00
2023-02-15T06:21:51.092Z,185.90
2023-02-15T06:24:18.644Z,160.27
2023-02-15T06:26:46.191Z,126.37
2023-02-15T06:29:13.785Z,110.43
2023-02-15T06:31:41.427Z,102.83
2023-02-15T06:34:08.876Z,144.70
2023-02-15T06:36:36.475Z,148.73
2023-02-15T06:39:04.029Z,95.53
2023-02-15T06:41:31.560Z,162.03
2023-02-15T06:43:59.136Z,168.30
2023-02-15T06:46:26.709Z,135.30
2023-02-15T06:48:54.214Z,138.10
2023-02-15T06:51:22.560Z,108.70
2023-02-15T06:53:50.096Z,91.18
2023-02-15T06:56:17.624Z,98.40
2023-02-15T06:58:45.206Z,129.53
2023-02-15T07:01:12.751Z,140.07
2023-02-15T07:03:40.292Z,169.13
2023-02-15T07:06:07.896Z,115.00
2023-02-15T07:08:35.436Z,129.37
2023-02-15T07:11:21.411Z,135.20
2023-02-15T07:13:48.986Z,105.10
2023-02-15T07:16:16.550Z,95.90
2023-02-15T07:18:44.117Z,159.73
2023-02-15T07:21:11.675Z,97.50
2023-02-15T07:23:39.228Z,103.33
2023-02-15T07:26:06.819Z,119.67
2023-02-15T07:28:37.128Z,149.57
2023-02-15T07:31:04.720Z,143.68
2023-02-15T07:33:32.264Z,135.12
2023-02-15T07:35:59.953Z,94.10
2023-02-15T07:38:27.358Z,113.53
2023-02-15T07:41:07.604Z,144.93
2023-02-15T07:43:35.171Z,88.23
2023-02-15T07:46:03.074Z,172.70
2023-02-15T07:48:30.285Z,128.07
2023-02-15T07:51:00.545Z,101.27
2023-02-15T07:53:28.858Z,112.57
2023-02-15T07:55:56.461Z,116.60
2023-02-15T07:58:24.008Z,102.73
2023-02-15T08:00:57.254Z,115.87
2023-02-15T08:03:25.719Z,118.43
2023-02-15T08:05:53.149Z,98.33
2023-02-15T08:08:32.547Z,135.47
2023-02-15T08:11:26.986Z,133.05
2023-02-15T08:13:57.440Z,115.50
2023-02-15T08:16:25.903Z,86.07
2023-02-15T08:18:53.337Z,162.10
2023-02-15T08:21:21.321Z,102.77
2023-02-15T08:23:48.484Z,137.87
2023-02-15T08:26:16.008Z,101.63
2023-02-15T08:28:43.582Z,142.77
2023-02-15T08:31:11.174Z,102.97
2023-02-15T08:33:38.647Z,97.40
2023-02-15T08:36:06.306Z,111.63
2023-02-15T08:38:33.870Z,163.10
2023-02-15T08:41:20.387Z,115.67
2023-02-15T08:43:47.952Z,121.97
2023-02-15T08:46:15.564Z,127.23
2023-02-15T08:48:44.069Z,112.60
2023-02-15T08:51:11.604Z,73.87
2023-02-15T08:53:42.060Z,76.60
2023-02-15T08:56:09.637Z,54.50
2023-02-15T08:58:37.174Z,63.50
2023-02-15T09:01:14.009Z,61.30
2023-02-15T09:03:41.514Z,67.73
2023-02-15T09:06:09.075Z,52.23
2023-02-15T09:08:36.640Z,68.03
2023-02-15T09:11:10.104Z,48.57
2023-02-15T09:13:38.393Z,56.10
2023-02-15T09:16:05.978Z,52.53
2023-02-15T09:18:33.491Z,51.97
2023-02-15T09:21:07.866Z,47.13
2023-02-15T09:23:35.439Z,43.63
2023-02-15T09:26:05.990Z,48.07
2023-02-15T09:28:33.524Z,41.07
2023-02-15T09:31:06.603Z,46.60
2023-02-15T09:33:36.591Z,47.53
2023-02-15T09:36:04.161Z,42.10
2023-02-15T09:38:32.030Z,44.13
2023-02-15T09:41:11.463Z,38.60
2023-02-15T09:43:42.107Z,42.77
2023-02-15T09:46:15.498Z,38.07
2023-02-15T09:48:42.975Z,45.13
2023-02-15T09:51:10.546Z,47.78
2023-02-15T09:53:49.937Z,40.47
2023-02-15T09:56:26.306Z,41.83
2023-02-15T09:59:14.606Z,43.47
2023-02-15T10:01:42.249Z,40.63
2023-02-15T10:04:12.220Z,45.93
2023-02-15T10:06:40.540Z,41.30
2023-02-15T10:09:19.948Z,38.23
2023-02-15T10:12:08.541Z,40.73
2023-02-15T10:14:57.261Z,39.80
2023-02-15T10:17:30.773Z,46.53
2023-02-15T10:20:07.130Z,42.30
2023-02-15T10:22:52.616Z,43.20
2023-02-15T10:25:35.239Z,40.33
2023-02-15T10:28:08.764Z,35.27
2023-02-15T10:30:42.923Z,41.47
2023-02-15T10:33:28.831Z,40.33
2023-02-15T10:35:56.423Z,40.23
2023-02-15T10:38:38.678Z,39.87
2023-02-15T10:41:24.618Z,42.10
2023-02-15T10:44:13.225Z,37.73
2023-02-15T10:46:49.907Z,37.33
2023-02-15T10:49:22.905Z,38.37
2023-02-15T10:52:12.543Z,40.67
2023-02-15T10:55:01.097Z,36.33
2023-02-15T10:57:48.022Z,42.47
2023-02-15T11:00:27.530Z,38.00
2023-02-15T11:03:20.753Z,39.10
2023-02-15T11:05:48.287Z,42.90
2023-02-15T11:08:15.832Z,37.17
2023-02-15T11:10:43.416Z,40.33
2023-02-15T11:13:10.970Z,38.53
2023-02-15T11:15:38.540Z,38.20
2023-02-15T11:18:15.082Z,43.47
2023-02-15T11:20:51.618Z,39.53
2023-02-15T11:23:19.177Z,40.10
2023-02-15T11:25:47.518Z,40.23
2023-02-15T11:28:21.163Z,38.50
2023-02-15T11:30:49.601Z,36.03
2023-02-15T11:33:17.059Z,38.47
2023-02-15T11:35:44.573Z,46.97
2023-02-15T11:38:12.136Z,42.27
2023-02-15T11:40:45.795Z,39.57
2023-02-15T11:43:13.347Z,40.37
2023-02-15T11:45:40.925Z,43.70
2023-02-15T11:48:11.903Z,42.10
2023-02-15T11:50:39.437Z,39.43
2023-02-15T11:53:19.280Z,36.30
2023-02-15T11:55:47.632Z,38.77
2023-02-15T11:58:30.051Z,39.80
2023-02-15T12:00:57.590Z,40.77
2023-02-15T12:03:46.101Z,37.70
2023-02-15T12:06:23.443Z,35.33
2023-02-15T12:08:51.048Z,36.37
2023-02-15T12:11:18.590Z,37.03
2023-02-15T12:13:58.571Z,40.60
2023-02-15T12:16:26.139Z,40.10
2023-02-15T12:18:53.640Z,37.13
2023-02-15T12:21:33.957Z,39.53
2023-02-15T12:24:16.649Z,33.37
2023-02-15T12:26:44.964Z,36.03
2023-02-15T12:29:17.983Z,34.67
2023-02-15T12:31:46.481Z,41.03
2023-02-15T12:34:13.881Z,37.57
2023-02-15T12:36:44.341Z,36.23
2023-02-15T12:39:15.450Z,35.13
2023-02-15T12:41:45.705Z,36.63
2023-02-15T12:44:22.541Z,38.00
2023-02-15T12:47:09.173Z,37.03
2023-02-15T12:49:36.672Z,36.73
2023-02-15T12:52:04.218Z,34.23
2023-02-15T12:54:32.554Z,36.53
2023-02-15T12:57:00.120Z,40.07
2023-02-15T12:59:27.639Z,36.53
2023-02-15T13:01:55.304Z,35.00
2023-02-15T13:04:25.165Z,36.10
2023-02-15T13:06:55.171Z,33.73
2023-02-15T13:09:31.507Z,35.60
2023-02-15T13:11:59.046Z,35.90
2023-02-15T13:14:32.100Z,39.57
2023-02-15T13:16:59.705Z,35.83
2023-02-15T13:19:42.675Z,33.53
2023-02-15T13:22:10.257Z,35.93
2023-02-15T13:24:37.813Z,34.47
2023-02-15T13:27:14.894Z,39.90
2023-02-15T13:29:36.339Z,37.35
2023-02-15T13:32:08.722Z,30.50
2023-02-15T13:34:36.271Z,37.88
2023-02-15T13:37:12.412Z,34.37
2023-02-15T13:39:40.706Z,34.33
2023-02-15T13:42:19.987Z,36.70
2023-02-15T13:45:08.409Z,33.50
2023-02-15T13:47:47.390Z,41.27
2023-02-15T13:50:33.586Z,32.47
2023-02-15T13:53:08.750Z,33.37
2023-02-15T13:55:53.808Z,35.33
2023-02-15T13:58:27.065Z,33.30
2023-02-15T14:01:06.506Z,31.37
2023-02-15T14:03:51.904Z,33.28
2023-02-15T14:06:49.766Z,33.57
2023-02-15T14:09:29.141Z,32.37
2023-02-15T14:11:56.673Z,30.30
2023-02-15T14:14:37.382Z,30.10
2023-02-15T14:17:42.270Z,30.70
2023-02-15T14:20:16.428Z,31.10
2023-02-15T14:22:43.970Z,34.23
2023-02-15T14:25:17.261Z,33.50
2023-02-15T14:27:47.688Z,28.00
2023-02-15T14:30:21.460Z,28.83
2023-02-15T14:32:54.317Z,31.67
2023-02-15T14:35:24.498Z,30.60
2023-02-15T14:38:04.131Z,33.60
2023-02-15T14:40:52.613Z,33.07
2023-02-15T14:43:38.706Z,33.63
2023-02-15T14:46:18.313Z,33.47
2023-02-15T14:48:48.866Z,32.50
2023-02-15T14:51:34.650Z,34.80
2023-02-15T14:54:02.234Z,31.80
2023-02-15T14:56:29.860Z,30.43
2023-02-15T14:58:57.310Z,31.20
2023-02-15T15:01:27.974Z,32.67
2023-02-15T15:03:56.306Z,31.87
2023-02-15T15:06:26.509Z,30.87
2023-02-15T15:08:54.098Z,31.60
2023-02-15T15:11:43.015Z,31.83
2023-02-15T15:13:58.394Z,29.03
2023-02-15T15:16:40.698Z,33.10
2023-02-15T15:19:11.187Z,27.93
2023-02-15T15:21:50.664Z,29.50
2023-02-15T15:24:39.509Z,32.37
2023-02-15T15:27:46.867Z,31.73
2023-02-15T15:30:15.134Z,30.37
2023-02-15T15:32:42.569Z,34.23
2023-02-15T15:35:31.942Z,37.60
2023-02-15T15:38:14.191Z,29.90
2023-02-15T15:40:41.790Z,31.33
2023-02-15T15:43:37.447Z,31.43
2023-02-15T15:46:25.968Z,35.67
2023-02-15T15:48:53.447Z,33.63
2023-02-15T15:51:20.993Z,29.47
2023-02-15T15:53:48.589Z,32.20
2023-02-15T15:56:16.144Z,32.20
2023-02-15T15:58:46.365Z,35.60
2023-02-15T16:01:13.983Z,33.47
2023-02-15T16:03:41.508Z,32.97
2023-02-15T16:06:09.088Z,30.47
2023-02-15T16:08:37.444Z,31.33
2023-02-15T16:11:23.472Z,28.93
2023-02-15T16:13:51.852Z,33.90
2023-02-15T16:16:25.470Z,32.90
2023-02-15T16:18:52.980Z,35.03
2023-02-15T16:21:23.304Z,32.95
2023-02-15T16:24:08.644Z,30.93
2023-02-15T16:27:00.567Z,31.40
2023-02-15T16:29:28.113Z,30.63
2023-02-15T16:32:08.103Z,31.50
2023-02-15T16:34:35.606Z,31.73
2023-02-15T16:37:15.900Z,29.63
2023-02-15T16:39:43.425Z,30.43
2023-02-15T16:42:11.755Z,33.07
2023-02-15T16:44:39.304Z,39.00
2023-02-15T16:47:06.836Z,32.30
2023-02-15T16:49:34.364Z,29.23
2023-02-15T16:52:08.767Z,36.30
2023-02-15T16:54:36.350Z,31.00
2023-02-15T16:57:03.887Z,34.17
2023-02-15T16:59:37.148Z,34.90
2023-02-15T17:02:07.376Z,30.17
2023-02-15T17:04:34.920Z,41.27
2023-02-15T17:07:04.988Z,40.53
2023-02-15T17:09:32.550Z,40.13
2023-02-15T17:12:00.121Z,36.40
2023-02-15T17:14:30.571Z,34.97
2023-02-15T17:17:01.095Z,35.47
2023-02-15T17:19:31.481Z,33.33
2023-02-15T17:21:59.050Z,34.20
2023-02-15T17:24:32.137Z,34.30
2023-02-15T17:27:00.450Z,35.20
2023-02-15T17:29:28.029Z,35.67
2023-02-15T17:31:55.666Z,36.90
2023-02-15T17:34:45.651Z,41.10
2023-02-15T17:37:31.522Z,41.00
2023-02-15T17:39:59.886Z,39.00
2023-02-15T17:42:27.377Z,35.57
2023-02-15T17:44:54.913Z,58.67
2023-02-15T17:47:23.269Z,42.47
2023-02-15T17:49:50.798Z,40.70
2023-02-15T17:52:18.318Z,46.88
2023-02-15T17:55:04.921Z,44.10
2023-02-15T17:57:32.471Z,44.80
2023-02-15T18:00:18.138Z,43.73
2023-02-15T18:03:04.038Z,39.90
2023-02-15T18:05:49.465Z,39.72
2023-02-15T18:08:35.118Z,39.10
2023-02-15T18:11:21.697Z,36.70
2023-02-15T18:13:49.238Z,45.53
2023-02-15T18:16:16.809Z,37.57
2023-02-15T18:18:44.394Z,36.63
2023-02-15T18:21:12.253Z,36.30
2023-02-15T18:23:40.246Z,36.30
2023-02-15T18:26:07.831Z,38.67
2023-02-15T18:28:35.362Z,33.20
2023-02-15T18:31:03.285Z,38.33
2023-02-15T18:33:37.038Z,29.37
2023-02-15T18:36:04.650Z,36.00
2023-02-15T18:38:32.202Z,36.43
2023-02-15T18:40:59.777Z,42.38
2023-02-15T18:43:27.351Z,43.80
2023-02-15T18:45:54.864Z,32.40
2023-02-15T18:48:22.441Z,63.30
2023-02-15T18:50:49.982Z,36.43
2023-02-15T18:53:20.125Z,33.83
2023-02-15T18:55:47.852Z,34.30
2023-02-15T18:58:18.071Z,39.40
2023-02-15T19:00:45.607Z,34.20
2023-02-15T19:03:13.212Z,32.57
2023-02-15T19:05:40.746Z,33.93
2023-02-15T19:08:08.313Z,32.43
2023-02-15T19:10:35.895Z,45.63
2023-02-15T19:13:03.454Z,34.20
2023-02-15T19:15:31.009Z,123.67
2023-02-15T19:17:58.632Z,80.17
2023-02-15T19:20:26.183Z,52.47
2023-02-15T19:22:54.467Z,49.60
2023-02-15T19:25:24.537Z,43.43
2023-02-15T19:27:52.073Z,46.63
2023-02-15T19:30:22.442Z,43.00
2023-02-15T19:32:49.985Z,46.23
2023-02-15T19:35:17.499Z,39.67
2023-02-15T19:37:45.052Z,48.87
2023-02-15T19:40:12.615Z,43.83
2023-02-15T19:42:40.199Z,46.70
2023-02-15T19:45:13.893Z,50.58
2023-02-15T19:47:41.475Z,46.17
2023-02-15T19:50:09.106Z,43.00
2023-02-15T19:52:36.628Z,46.73
2023-02-15T19:55:05.004Z,47.10
2023-02-15T19:57:33.303Z,44.33
2023-02-15T20:00:12.396Z,46.83
2023-02-15T20:02:29.220Z,49.43
2023-02-15T20:04:57.593Z,40.73
2023-02-15T20:07:28.135Z,45.20
2023-02-15T20:09:56.482Z,48.80
2023-02-15T20:12:24.021Z,48.73
2023-02-15T20:14:51.566Z,61.07
2023-02-15T20:17:19.151Z,69.97
2023-02-15T20:19:46.679Z,78.73
2023-02-15T20:22:16.886Z,70.40
2023-02-15T20:24:44.481Z,68.40
2023-02-15T20:27:17.716Z,63.80
2023-02-15T20:29:46.015Z,52.43
2023-02-15T20:32:13.653Z,47.57
2023-02-15T20:34:41.146Z,42.60
2023-02-15T20:37:23.728Z,50.45
2023-02-15T20:39:51.230Z,36.03
2023-02-15T20:42:18.749Z,35.13
2023-02-15T20:44:46.335Z,40.33
2023-02-15T20:47:13.900Z,43.22
2023-02-15T20:49:41.436Z,41.97
2023-02-15T20:52:18.202Z,37.60
2023-02-15T20:54:46.519Z,36.13
2023-02-15T20:57:14.047Z,35.17
2023-02-15T20:59:41.611Z,37.43
2023-02-15T21:02:21.062Z,33.50
2023-02-15T21:04:49.375Z,38.57
2023-02-15T21:07:16.897Z,44.73
2023-02-15T21:09:44.447Z,43.00
2023-02-15T21:12:17.636Z,43.63
2023-02-15T21:14:45.164Z,37.33
2023-02-15T21:17:13.502Z,43.83
2023-02-15T21:19:41.413Z,51.83
2023-02-15T21:22:08.611Z,49.87
2023-02-15T21:24:36.137Z,53.25
2023-02-15T21:27:04.339Z,50.27
2023-02-15T21:29:31.878Z,46.10
2023-02-15T21:32:00.230Z,50.97
2023-02-15T21:34:27.737Z,54.33
2023-02-15T21:36:55.258Z,46.87
2023-02-15T21:39:26.346Z,47.47
2023-02-15T21:42:12.151Z,44.67
2023-02-15T21:44:57.816Z,58.63
2023-02-15T21:47:43.513Z,43.00
2023-02-15T21:50:31.749Z,45.67
2023-02-15T21:52:59.314Z,62.97
2023-02-15T21:55:26.852Z,61.20
2023-02-15T21:57:54.383Z,52.30
2023-02-15T22:00:21.978Z,41.10
2023-02-15T22:02:49.502Z,40.83
2023-02-15T22:05:17.055Z,43.87
2023-02-15T22:07:45.392Z,41.13
2023-02-15T22:10:12.922Z,37.30
2023-02-15T22:12:40.445Z,36.03
2023-02-15T22:15:08.042Z,38.80
2023-02-15T22:17:35.564Z,33.30
2023-02-15T22:20:03.116Z,37.63
2023-02-15T22:22:31.461Z,33.47
2023-02-15T22:24:58.986Z,34.27
2023-02-15T22:27:26.526Z,48.40
2023-02-15T22:29:54.146Z,33.03
2023-02-15T22:32:21.789Z,45.87
2023-02-15T22:34:49.222Z,35.10
2023-02-15T22:37:17.114Z,35.50
2023-02-15T22:39:44.625Z,33.07
2023-02-15T22:42:25.311Z,39.95
2023-02-15T22:44:55.341Z,45.60
2023-02-15T22:47:22.873Z,38.23
2023-02-15T22:49:50.449Z,36.93
2023-02-15T22:52:17.972Z,39.10
2023-02-15T22:54:45.508Z,38.00
2023-02-15T22:57:18.910Z,34.53
2023-02-15T22:59:46.434Z,36.20
2023-02-15T23:02:13.971Z,37.93
2023-02-15T23:04:41.554Z,38.97
2023-02-15T23:07:09.080Z,41.70
2023-02-15T23:09:36.613Z,40.77
2023-02-15T23:12:04.964Z,32.47
2023-02-15T23:14:35.632Z,39.03
2023-02-15T23:17:03.915Z,40.23
2023-02-15T23:19:31.491Z,35.97
2023-02-15T23:21:59.034Z,39.33
2023-02-15T23:24:29.256Z,41.40
2023-02-15T23:26:56.864Z,39.67
2023-02-15T23:29:24.360Z,40.27
2023-02-15T23:31:52.804Z,42.10
2023-02-15T23:34:23.306Z,41.30
2023-02-15T23:36:50.842Z,37.63
2023-02-15T23:39:38.981Z,38.23
2023-02-15T23:42:12.577Z,37.90
2023-02-15T23:44:40.885Z,36.83
2023-02-15T23:47:08.467Z,37.77
2023-02-15T23:49:35.993Z,35.67
2023-02-15T23:52:03.536Z,34.27
2023-02-15T23:54:31.884Z,33.40
2023-02-15T23:56:59.440Z,36.83
2023-02-15T23:59:26.962Z,36.27
